Walker, Iowa
Current Conditions -  °F | °C
As of 4:55 PM on Wednesday 26 Nov 2014 (Local Time) from KVTI Reporting Station
Haze Haze  
Wind Chill: 21°   Ceiling: 1300
Heat Index: 30°   Visibility: 5mi
Dew Point: 27°   Wind: 10mph
Humidity: 86%   Direction: 40°NE
Pressure: 30.15"   Gusts: NA
Location:  42.29°N, 91.78°W
Report Text: KVTI 262255Z AUTO 04009KT 5SM BR SCT002 SCT009 OVC013 M01/M03 A3015 RMK AO2 T10101030
Loading
Personal Weather Stations






























Interactive Weather Map New forecast layout! Learn more

10-Day Weather Forecast

Advertisements
Track Severe Weather on mobile